• Join FlightAware (Why Join?)
  • Login
  • US Flag 
07:15AM EDT


 

Airport Tracker/Info


-or-


 

Live Flight TrackerFlight Track Log ✈ SWA2130 ✈ 29-Apr-2013 ✈ KSFO - KLAX

Flight Track Log - Related Links

Times and Time Zones

All times are in EDT time to prevent confusion due to time zone crossing. See the SWA2130 flight status page for this flight to view local times or setup timezone preferences in your user account.

Time Position Orientation Groundspeed Altitude Reporting Facility
EDT Latitude Longitude Course Direction KTS MPH feet Rate Location/Type
06:56PM 37.6333 -122.4333 310° West 192 221 2,300  Level Northern Cal TRACON
06:57PM 37.6667 -122.4833 310° West 220 253 5,500 2,700 Climbing Northern Cal TRACON
06:59PM 37.6017 -122.5175 203° Southwest 273 314 8,600 2,460 Climbing Oakland Center
07:00PM 37.5375 -122.4442 138° Southeast 321 369 11,600 3,360 Climbing Oakland Center
07:01PM 37.4692 -122.3506 133° Southeast 359 413 15,500 3,660 Climbing Oakland Center
07:02PM 37.3981 -122.2542 133° Southeast 376 433 19,100 3,300 Climbing Oakland Center
07:03PM 37.3222 -122.1519 133° Southeast 399 459 22,300 3,420 Climbing Oakland Center
07:04PM 37.2275 -122.0247 133° Southeast 416 479 26,100 3,000 Climbing Oakland Center
07:05PM 37.1458 -121.9161 133° Southeast 428 493 28,500 2,160 Climbing Oakland Center
07:06PM 37.0606 -121.8036 134° Southeast 444 511 30,600 2,040 Climbing Oakland Center
07:07PM 36.9725 -121.6883 134° Southeast 458 527 32,700 2,400 Climbing Oakland Center
07:08PM 36.8861 -121.5731 133° Southeast 457 526 35,500 2,400 Climbing Oakland Center
07:09PM 36.7969 -121.4553 133° Southeast 440 506 37,700 1,620 Climbing Oakland Center
07:10PM 36.7131 -121.3461 134° Southeast 437 503 38,900 1,080 Climbing Oakland Center
07:11PM 36.6272 -121.2328 133° Southeast 448 516 40,000 1,020 Climbing Oakland Center
07:12PM 36.5417 -121.1200 133° Southeast 448 516 41,000 480 Climbing Oakland Center
07:13PM 36.4558 -121.0106 134° Southeast 443 510 41,000  Level Oakland Center
07:14PM 36.3714 -120.8989 133° Southeast 444 511 41,000  Level Oakland Center
07:15PM 36.2867 -120.7900 134° Southeast 439 505 41,000  Level Oakland Center
07:16PM 36.2006 -120.6803 134° Southeast 442 509 41,000  Level Oakland Center
07:17PM 36.1144 -120.5703 134° Southeast 444 511 41,000  Level Oakland Center
07:18PM 36.0114 -120.4372 134° Southeast 449 517 41,000  Level Oakland Center
07:19PM 35.9267 -120.3308 135° Southeast 437 503 41,000  Level Oakland Center
07:20PM 35.8408 -120.2214 134° Southeast 440 506 41,000  Level Oakland Center
07:21PM 35.7539 -120.1119 134° Southeast 443 510 41,000  Level Oakland Center
07:22PM 35.6664 -120.0017 134° Southeast 445 512 41,000  Level Oakland Center
07:23PM 35.5675 -119.9075 142° Southeast 446 513 41,000 -180 Level Oakland Center
07:24PM 35.4628 -119.8189 145° Southeast 451 519 40,700 -660 Descending Oakland Center
07:25PM 35.3603 -119.7303 145° Southeast 448 516 39,700 -960 Descending Oakland Center
07:26PM 35.2800 -119.6617 145° Southeast 445 512 39,000 -960 Descending Los Angeles Center
07:27PM 35.1786 -119.5761 145° Southeast 443 510 38,000 -1,800 Descending Los Angeles Center
07:28PM 35.0781 -119.4903 145° Southeast 440 506 35,400 -2,820 Descending Los Angeles Center
07:29PM 34.9789 -119.4039 144° Southeast 438 504 32,200 -3,060 Descending Los Angeles Center
07:30PM 34.8553 -119.2989 145° Southeast 449 517 29,100 -2,760 Descending Los Angeles Center
07:31PM 34.7556 -119.2161 146° Southeast 437 503 26,600 -2,400 Descending Los Angeles Center
07:32PM 34.6597 -119.1358 145° Southeast 422 486 24,200 -2,280 Descending Los Angeles Center
07:33PM 34.5711 -119.0614 145° Southeast 409 471 22,000 -2,160 Descending Los Angeles Center
07:34PM 34.4831 -118.9872 145° Southeast 382 440 19,800 -2,520 Descending Los Angeles Center
07:35PM 34.3792 -118.9019 146° Southeast 374 430 16,900 -2,520 Descending Los Angeles Center
07:36PM 34.2869 -118.8558 158° South 360 414 14,700 -2,160 Descending Los Angeles Center
07:37PM 34.1925 -118.8219 163° South 354 407 12,500 -1,560 Descending Los Angeles Center
07:38PM 34.1017 -118.7881 163° South 343 395 11,500 -1,140 Descending Los Angeles Center
07:39PM 34.0336 -118.7064 135° Southeast 335 386 10,200 -780 Descending Los Angeles Center
07:40PM 34.0231 -118.5950 96° East 312 359 10,000 -1,020 Descending Los Angeles Center
07:41PM 34.0136 -118.4967 97° East 296 341 8,100 -1,800 Descending Los Angeles Center
07:42PM 34.0161 -118.3978 88° East 293 337 6,400 -1,620 Descending Los Angeles Center
07:43PM 34.0272 -118.2983 82° East 296 341 4,800 -1,080 Descending Los Angeles Center
07:44PM 34.0175 -118.2222 99° East 261 300 4,200 -960 Descending Los Angeles Center
07:45PM 33.9744 -118.2592 215° Southwest 214 246 2,900 -1,380 Descending Los Angeles Center
07:47PM 33.9603 -118.3208 255° West 201 231 1,400 -1,200 Descending Los Angeles Center
07:48PM 33.9553 -118.3797 264° West 166 191 500 -660 Descending Los Angeles Center
07:49PM 33.9517 -118.4150 263° West 146 168 100 -420 Descending Los Angeles Center
07:51PM 33.9425 -118.4081 228° Southwest  Level Estimated